sensor_id;sensor_type;location;lat;lon;timestamp;P1;durP1;ratioP1;P2;durP2;ratioP2
18947;SDS011;9607;51.600;7.558;2023-09-19T00:01:33;8.15;;;3.50;;
18947;SDS011;9607;51.600;7.558;2023-09-19T00:04:01;6.30;;;3.22;;
18947;SDS011;9607;51.600;7.558;2023-09-19T00:06:28;7.90;;;3.50;;
18947;SDS011;9607;51.600;7.558;2023-09-19T00:08:56;7.00;;;3.50;;
18947;SDS011;9607;51.600;7.558;2023-09-19T00:11:25;6.03;;;3.03;;
18947;SDS011;9607;51.600;7.558;2023-09-19T00:13:52;9.00;;;3.25;;
18947;SDS011;9607;51.600;7.558;2023-09-19T00:16:19;6.13;;;2.60;;
18947;SDS011;9607;51.600;7.558;2023-09-19T00:18:46;6.40;;;2.80;;
18947;SDS011;9607;51.600;7.558;2023-09-19T00:21:15;9.15;;;3.30;;
18947;SDS011;9607;51.600;7.558;2023-09-19T00:23:42;6.90;;;3.00;;
18947;SDS011;9607;51.600;7.558;2023-09-19T00:26:09;5.75;;;2.90;;
18947;SDS011;9607;51.600;7.558;2023-09-19T00:28:35;4.97;;;2.67;;
18947;SDS011;9607;51.600;7.558;2023-09-19T00:31:02;9.05;;;2.65;;
18947;SDS011;9607;51.600;7.558;2023-09-19T00:33:30;8.32;;;3.10;;
18947;SDS011;9607;51.600;7.558;2023-09-19T00:35:57;8.48;;;2.53;;
18947;SDS011;9607;51.600;7.558;2023-09-19T00:38:26;8.32;;;2.58;;
18947;SDS011;9607;51.600;7.558;2023-09-19T00:40:53;8.30;;;2.90;;
18947;SDS011;9607;51.600;7.558;2023-09-19T00:43:21;8.23;;;2.72;;
18947;SDS011;9607;51.600;7.558;2023-09-19T00:45:51;8.35;;;2.45;;
18947;SDS011;9607;51.600;7.558;2023-09-19T00:48:19;9.57;;;2.50;;
18947;SDS011;9607;51.600;7.558;2023-09-19T00:50:46;9.10;;;2.53;;
18947;SDS011;9607;51.600;7.558;2023-09-19T00:53:15;9.55;;;2.20;;
18947;SDS011;9607;51.600;7.558;2023-09-19T00:55:45;7.68;;;2.72;;
18947;SDS011;9607;51.600;7.558;2023-09-19T00:58:12;8.20;;;2.95;;
18947;SDS011;9607;51.600;7.558;2023-09-19T01:00:40;11.65;;;3.10;;
18947;SDS011;9607;51.600;7.558;2023-09-19T01:03:09;11.45;;;2.95;;
18947;SDS011;9607;51.600;7.558;2023-09-19T01:05:38;6.15;;;2.40;;
18947;SDS011;9607;51.600;7.558;2023-09-19T01:08:05;8.68;;;2.83;;
18947;SDS011;9607;51.600;7.558;2023-09-19T01:10:32;10.65;;;2.90;;
18947;SDS011;9607;51.600;7.558;2023-09-19T01:13:05;10.75;;;2.65;;
18947;SDS011;9607;51.600;7.558;2023-09-19T01:15:44;8.80;;;2.72;;
18947;SDS011;9607;51.600;7.558;2023-09-19T01:18:21;6.50;;;2.83;;
18947;SDS011;9607;51.600;7.558;2023-09-19T01:20:55;7.13;;;2.50;;
18947;SDS011;9607;51.600;7.558;2023-09-19T01:23:32;11.57;;;3.17;;
18947;SDS011;9607;51.600;7.558;2023-09-19T01:26:19;12.15;;;2.70;;
18947;SDS011;9607;51.600;7.558;2023-09-19T01:29:06;9.32;;;2.60;;
18947;SDS011;9607;51.600;7.558;2023-09-19T01:31:51;10.70;;;2.78;;
18947;SDS011;9607;51.600;7.558;2023-09-19T01:34:19;8.93;;;2.65;;
18947;SDS011;9607;51.600;7.558;2023-09-19T01:36:46;12.10;;;2.85;;
18947;SDS011;9607;51.600;7.558;2023-09-19T01:39:13;8.98;;;2.33;;
18947;SDS011;9607;51.600;7.558;2023-09-19T01:44:38;11.13;;;2.90;;
18947;SDS011;9607;51.600;7.558;2023-09-19T01:47:19;7.85;;;2.78;;
18947;SDS011;9607;51.600;7.558;2023-09-19T01:49:55;8.77;;;2.67;;
18947;SDS011;9607;51.600;7.558;2023-09-19T01:52:38;13.82;;;3.33;;
18947;SDS011;9607;51.600;7.558;2023-09-19T01:55:11;13.75;;;3.20;;
18947;SDS011;9607;51.600;7.558;2023-09-19T01:57:46;11.10;;;2.90;;
18947;SDS011;9607;51.600;7.558;2023-09-19T02:00:19;14.05;;;2.95;;
18947;SDS011;9607;51.600;7.558;2023-09-19T02:02:50;11.20;;;3.15;;
18947;SDS011;9607;51.600;7.558;2023-09-19T02:05:24;14.57;;;3.55;;
18947;SDS011;9607;51.600;7.558;2023-09-19T02:07:52;8.77;;;2.78;;
18947;SDS011;9607;51.600;7.558;2023-09-19T02:10:20;6.60;;;2.47;;
18947;SDS011;9607;51.600;7.558;2023-09-19T02:12:48;10.63;;;2.85;;
18947;SDS011;9607;51.600;7.558;2023-09-19T02:15:16;8.10;;;2.58;;
18947;SDS011;9607;51.600;7.558;2023-09-19T02:17:43;13.50;;;2.97;;
18947;SDS011;9607;51.600;7.558;2023-09-19T02:20:12;14.50;;;3.35;;
18947;SDS011;9607;51.600;7.558;2023-09-19T02:22:40;16.40;;;3.00;;
18947;SDS011;9607;51.600;7.558;2023-09-19T02:25:07;15.52;;;2.80;;
18947;SDS011;9607;51.600;7.558;2023-09-19T02:27:34;10.18;;;2.63;;
18947;SDS011;9607;51.600;7.558;2023-09-19T02:30:02;11.65;;;2.80;;
18947;SDS011;9607;51.600;7.558;2023-09-19T02:32:31;10.50;;;2.78;;
18947;SDS011;9607;51.600;7.558;2023-09-19T02:35:01;11.52;;;3.10;;
18947;SDS011;9607;51.600;7.558;2023-09-19T02:37:31;12.55;;;2.38;;
18947;SDS011;9607;51.600;7.558;2023-09-19T02:40:00;10.85;;;3.10;;
18947;SDS011;9607;51.600;7.558;2023-09-19T02:42:27;8.82;;;2.58;;
18947;SDS011;9607;51.600;7.558;2023-09-19T02:44:55;10.52;;;2.58;;
18947;SDS011;9607;51.600;7.558;2023-09-19T02:47:23;13.35;;;2.85;;
18947;SDS011;9607;51.600;7.558;2023-09-19T02:49:51;10.45;;;2.80;;
18947;SDS011;9607;51.600;7.558;2023-09-19T02:52:18;9.82;;;2.20;;
18947;SDS011;9607;51.600;7.558;2023-09-19T02:54:46;15.18;;;2.92;;
18947;SDS011;9607;51.600;7.558;2023-09-19T02:57:13;10.15;;;3.00;;
18947;SDS011;9607;51.600;7.558;2023-09-19T02:59:42;9.05;;;2.55;;
18947;SDS011;9607;51.600;7.558;2023-09-19T03:02:09;10.10;;;2.70;;
18947;SDS011;9607;51.600;7.558;2023-09-19T03:04:36;8.95;;;2.75;;
18947;SDS011;9607;51.600;7.558;2023-09-19T03:07:03;11.07;;;3.10;;
18947;SDS011;9607;51.600;7.558;2023-09-19T03:09:31;10.00;;;2.88;;
18947;SDS011;9607;51.600;7.558;2023-09-19T03:12:01;12.23;;;2.75;;
18947;SDS011;9607;51.600;7.558;2023-09-19T03:14:29;12.93;;;2.75;;
18947;SDS011;9607;51.600;7.558;2023-09-19T03:17:00;10.35;;;3.33;;
18947;SDS011;9607;51.600;7.558;2023-09-19T03:19:29;10.43;;;2.78;;
18947;SDS011;9607;51.600;7.558;2023-09-19T03:21:58;16.25;;;3.25;;
18947;SDS011;9607;51.600;7.558;2023-09-19T03:24:25;10.23;;;2.70;;
18947;SDS011;9607;51.600;7.558;2023-09-19T03:26:52;11.43;;;3.25;;
18947;SDS011;9607;51.600;7.558;2023-09-19T03:29:20;8.77;;;2.85;;
18947;SDS011;9607;51.600;7.558;2023-09-19T03:31:47;10.10;;;2.80;;
18947;SDS011;9607;51.600;7.558;2023-09-19T03:34:14;19.05;;;3.15;;
18947;SDS011;9607;51.600;7.558;2023-09-19T03:36:41;11.55;;;2.30;;
18947;SDS011;9607;51.600;7.558;2023-09-19T03:39:09;16.30;;;3.25;;
18947;SDS011;9607;51.600;7.558;2023-09-19T03:41:36;9.13;;;2.50;;
18947;SDS011;9607;51.600;7.558;2023-09-19T03:44:03;10.02;;;2.67;;
18947;SDS011;9607;51.600;7.558;2023-09-19T03:46:31;10.95;;;2.75;;
18947;SDS011;9607;51.600;7.558;2023-09-19T03:48:59;12.48;;;2.78;;
18947;SDS011;9607;51.600;7.558;2023-09-19T03:51:26;9.93;;;2.70;;
18947;SDS011;9607;51.600;7.558;2023-09-19T03:53:53;9.15;;;2.55;;
18947;SDS011;9607;51.600;7.558;2023-09-19T03:56:18;11.65;;;3.40;;
18947;SDS011;9607;51.600;7.558;2023-09-19T03:58:45;13.98;;;2.80;;
18947;SDS011;9607;51.600;7.558;2023-09-19T04:01:12;8.20;;;2.30;;
18947;SDS011;9607;51.600;7.558;2023-09-19T04:03:40;12.60;;;2.63;;
18947;SDS011;9607;51.600;7.558;2023-09-19T04:06:15;11.15;;;2.78;;
18947;SDS011;9607;51.600;7.558;2023-09-19T04:08:43;8.25;;;3.22;;
18947;SDS011;9607;51.600;7.558;2023-09-19T04:11:11;8.77;;;2.60;;
18947;SDS011;9607;51.600;7.558;2023-09-19T04:13:38;6.82;;;2.50;;
18947;SDS011;9607;51.600;7.558;2023-09-19T04:16:05;14.80;;;2.95;;
18947;SDS011;9607;51.600;7.558;2023-09-19T04:18:32;6.45;;;2.28;;
18947;SDS011;9607;51.600;7.558;2023-09-19T04:21:03;8.07;;;2.25;;
18947;SDS011;9607;51.600;7.558;2023-09-19T04:23:30;7.00;;;2.60;;
18947;SDS011;9607;51.600;7.558;2023-09-19T04:25:57;6.50;;;2.15;;
18947;SDS011;9607;51.600;7.558;2023-09-19T04:28:24;6.75;;;2.60;;
18947;SDS011;9607;51.600;7.558;2023-09-19T04:30:53;7.88;;;2.35;;
18947;SDS011;9607;51.600;7.558;2023-09-19T04:33:20;8.40;;;2.60;;
18947;SDS011;9607;51.600;7.558;2023-09-19T04:35:48;10.10;;;2.70;;
18947;SDS011;9607;51.600;7.558;2023-09-19T04:38:17;11.50;;;2.83;;
18947;SDS011;9607;51.600;7.558;2023-09-19T04:40:44;7.40;;;2.08;;
18947;SDS011;9607;51.600;7.558;2023-09-19T04:43:11;9.15;;;2.75;;
18947;SDS011;9607;51.600;7.558;2023-09-19T04:45:38;11.15;;;2.22;;
18947;SDS011;9607;51.600;7.558;2023-09-19T04:48:05;12.55;;;2.78;;
18947;SDS011;9607;51.600;7.558;2023-09-19T04:50:33;8.25;;;2.13;;
18947;SDS011;9607;51.600;7.558;2023-09-19T04:53:02;9.85;;;2.90;;
18947;SDS011;9607;51.600;7.558;2023-09-19T04:55:31;7.82;;;2.50;;
18947;SDS011;9607;51.600;7.558;2023-09-19T04:57:58;8.60;;;2.38;;
18947;SDS011;9607;51.600;7.558;2023-09-19T05:00:25;7.50;;;2.35;;
18947;SDS011;9607;51.600;7.558;2023-09-19T05:02:55;10.15;;;2.47;;
18947;SDS011;9607;51.600;7.558;2023-09-19T05:05:23;8.05;;;2.13;;
18947;SDS011;9607;51.600;7.558;2023-09-19T05:07:51;10.18;;;2.80;;
18947;SDS011;9607;51.600;7.558;2023-09-19T05:10:19;9.55;;;2.53;;
18947;SDS011;9607;51.600;7.558;2023-09-19T05:12:48;10.98;;;2.75;;
18947;SDS011;9607;51.600;7.558;2023-09-19T05:15:16;12.02;;;2.80;;
18947;SDS011;9607;51.600;7.558;2023-09-19T05:17:47;12.93;;;2.40;;
18947;SDS011;9607;51.600;7.558;2023-09-19T05:20:15;11.07;;;2.90;;
18947;SDS011;9607;51.600;7.558;2023-09-19T05:22:44;8.95;;;2.42;;
18947;SDS011;9607;51.600;7.558;2023-09-19T05:25:11;8.65;;;2.13;;
18947;SDS011;9607;51.600;7.558;2023-09-19T05:27:44;6.05;;;2.33;;
18947;SDS011;9607;51.600;7.558;2023-09-19T05:30:12;13.85;;;2.90;;
18947;SDS011;9607;51.600;7.558;2023-09-19T05:32:41;8.10;;;2.28;;
18947;SDS011;9607;51.600;7.558;2023-09-19T05:35:08;10.55;;;2.40;;
18947;SDS011;9607;51.600;7.558;2023-09-19T05:37:38;10.10;;;2.30;;
18947;SDS011;9607;51.600;7.558;2023-09-19T05:40:05;10.15;;;2.40;;
18947;SDS011;9607;51.600;7.558;2023-09-19T05:42:35;7.15;;;2.40;;
18947;SDS011;9607;51.600;7.558;2023-09-19T05:45:03;5.65;;;2.08;;
18947;SDS011;9607;51.600;7.558;2023-09-19T05:47:32;15.30;;;2.72;;
18947;SDS011;9607;51.600;7.558;2023-09-19T05:49:59;10.52;;;3.08;;
18947;SDS011;9607;51.600;7.558;2023-09-19T05:52:26;10.52;;;2.10;;
18947;SDS011;9607;51.600;7.558;2023-09-19T05:54:53;5.25;;;1.80;;
18947;SDS011;9607;51.600;7.558;2023-09-19T05:57:21;9.18;;;2.30;;
18947;SDS011;9607;51.600;7.558;2023-09-19T05:59:49;8.23;;;2.50;;
18947;SDS011;9607;51.600;7.558;2023-09-19T06:02:16;6.35;;;2.00;;
18947;SDS011;9607;51.600;7.558;2023-09-19T06:04:45;10.48;;;3.15;;
18947;SDS011;9607;51.600;7.558;2023-09-19T06:07:12;7.20;;;2.22;;
18947;SDS011;9607;51.600;7.558;2023-09-19T06:09:40;5.70;;;2.65;;
18947;SDS011;9607;51.600;7.558;2023-09-19T06:12:07;9.45;;;2.75;;
18947;SDS011;9607;51.600;7.558;2023-09-19T06:14:34;6.05;;;1.73;;
18947;SDS011;9607;51.600;7.558;2023-09-19T06:17:01;9.85;;;2.63;;
18947;SDS011;9607;51.600;7.558;2023-09-19T06:19:28;9.75;;;2.55;;
18947;SDS011;9607;51.600;7.558;2023-09-19T06:21:59;5.95;;;2.28;;
18947;SDS011;9607;51.600;7.558;2023-09-19T06:24:26;8.68;;;2.10;;
18947;SDS011;9607;51.600;7.558;2023-09-19T06:26:53;10.05;;;2.35;;
18947;SDS011;9607;51.600;7.558;2023-09-19T06:29:21;7.47;;;2.30;;
18947;SDS011;9607;51.600;7.558;2023-09-19T06:31:48;4.82;;;1.67;;
18947;SDS011;9607;51.600;7.558;2023-09-19T06:34:16;7.30;;;2.83;;
18947;SDS011;9607;51.600;7.558;2023-09-19T06:36:43;10.00;;;2.40;;
18947;SDS011;9607;51.600;7.558;2023-09-19T06:39:11;7.70;;;2.40;;
18947;SDS011;9607;51.600;7.558;2023-09-19T06:41:38;8.68;;;2.17;;
18947;SDS011;9607;51.600;7.558;2023-09-19T06:44:07;9.75;;;2.42;;
18947;SDS011;9607;51.600;7.558;2023-09-19T06:46:34;15.70;;;8.98;;
18947;SDS011;9607;51.600;7.558;2023-09-19T06:49:04;15.50;;;5.38;;
18947;SDS011;9607;51.600;7.558;2023-09-19T06:51:31;13.40;;;4.35;;
18947;SDS011;9607;51.600;7.558;2023-09-19T06:53:59;32.42;;;18.13;;
18947;SDS011;9607;51.600;7.558;2023-09-19T06:56:28;24.90;;;13.55;;
18947;SDS011;9607;51.600;7.558;2023-09-19T06:58:55;12.30;;;5.38;;
18947;SDS011;9607;51.600;7.558;2023-09-19T07:01:22;9.80;;;4.25;;
18947;SDS011;9607;51.600;7.558;2023-09-19T07:03:50;11.88;;;3.13;;
18947;SDS011;9607;51.600;7.558;2023-09-19T07:06:18;10.18;;;2.70;;
18947;SDS011;9607;51.600;7.558;2023-09-19T07:08:44;7.80;;;2.80;;
18947;SDS011;9607;51.600;7.558;2023-09-19T07:11:11;8.50;;;2.38;;
18947;SDS011;9607;51.600;7.558;2023-09-19T07:13:40;8.90;;;2.30;;
18947;SDS011;9607;51.600;7.558;2023-09-19T07:16:07;7.95;;;2.40;;
18947;SDS011;9607;51.600;7.558;2023-09-19T07:18:35;8.95;;;2.45;;
18947;SDS011;9607;51.600;7.558;2023-09-19T07:21:02;8.77;;;3.05;;
18947;SDS011;9607;51.600;7.558;2023-09-19T07:23:30;8.85;;;2.38;;
18947;SDS011;9607;51.600;7.558;2023-09-19T07:26:00;7.55;;;2.50;;
18947;SDS011;9607;51.600;7.558;2023-09-19T07:28:30;13.05;;;2.60;;
18947;SDS011;9607;51.600;7.558;2023-09-19T07:30:59;13.35;;;3.08;;
18947;SDS011;9607;51.600;7.558;2023-09-19T07:33:28;20.85;;;2.38;;
18947;SDS011;9607;51.600;7.558;2023-09-19T07:35:55;9.13;;;2.53;;
18947;SDS011;9607;51.600;7.558;2023-09-19T07:38:22;5.68;;;2.30;;
18947;SDS011;9607;51.600;7.558;2023-09-19T07:40:48;9.55;;;2.95;;
18947;SDS011;9607;51.600;7.558;2023-09-19T07:43:15;7.15;;;2.15;;
18947;SDS011;9607;51.600;7.558;2023-09-19T07:45:43;10.45;;;2.50;;
18947;SDS011;9607;51.600;7.558;2023-09-19T07:48:11;9.30;;;2.72;;
18947;SDS011;9607;51.600;7.558;2023-09-19T07:50:40;6.80;;;2.28;;
18947;SDS011;9607;51.600;7.558;2023-09-19T07:53:08;9.38;;;2.83;;
18947;SDS011;9607;51.600;7.558;2023-09-19T07:55:37;10.18;;;2.47;;
18947;SDS011;9607;51.600;7.558;2023-09-19T07:58:05;8.75;;;2.50;;
18947;SDS011;9607;51.600;7.558;2023-09-19T08:00:32;10.02;;;3.05;;
18947;SDS011;9607;51.600;7.558;2023-09-19T08:02:59;9.07;;;2.38;;
18947;SDS011;9607;51.600;7.558;2023-09-19T08:05:28;14.13;;;2.75;;
18947;SDS011;9607;51.600;7.558;2023-09-19T08:07:55;8.88;;;3.05;;
18947;SDS011;9607;51.600;7.558;2023-09-19T08:10:24;8.35;;;2.67;;
18947;SDS011;9607;51.600;7.558;2023-09-19T08:12:52;13.15;;;2.80;;
18947;SDS011;9607;51.600;7.558;2023-09-19T08:15:23;8.20;;;2.30;;
18947;SDS011;9607;51.600;7.558;2023-09-19T08:17:50;10.77;;;2.38;;
18947;SDS011;9607;51.600;7.558;2023-09-19T08:20:17;9.48;;;3.22;;
18947;SDS011;9607;51.600;7.558;2023-09-19T08:22:46;10.35;;;2.80;;
18947;SDS011;9607;51.600;7.558;2023-09-19T08:25:14;10.32;;;2.08;;
18947;SDS011;9607;51.600;7.558;2023-09-19T08:27:43;10.50;;;2.40;;
18947;SDS011;9607;51.600;7.558;2023-09-19T08:30:13;7.20;;;2.83;;
18947;SDS011;9607;51.600;7.558;2023-09-19T08:32:40;15.73;;;2.90;;
18947;SDS011;9607;51.600;7.558;2023-09-19T08:35:08;15.25;;;3.15;;
18947;SDS011;9607;51.600;7.558;2023-09-19T08:37:36;8.15;;;2.30;;
18947;SDS011;9607;51.600;7.558;2023-09-19T08:40:04;9.20;;;2.33;;
18947;SDS011;9607;51.600;7.558;2023-09-19T08:42:46;12.80;;;3.17;;
18947;SDS011;9607;51.600;7.558;2023-09-19T08:45:14;13.75;;;3.05;;
18947;SDS011;9607;51.600;7.558;2023-09-19T08:47:46;7.20;;;2.72;;
18947;SDS011;9607;51.600;7.558;2023-09-19T08:50:19;10.50;;;2.70;;
18947;SDS011;9607;51.600;7.558;2023-09-19T08:52:48;5.72;;;1.80;;
18947;SDS011;9607;51.600;7.558;2023-09-19T08:55:22;10.60;;;2.75;;
18947;SDS011;9607;51.600;7.558;2023-09-19T08:57:53;10.25;;;2.83;;
18947;SDS011;9607;51.600;7.558;2023-09-19T09:00:27;6.13;;;2.13;;
18947;SDS011;9607;51.600;7.558;2023-09-19T09:02:55;8.40;;;2.50;;
18947;SDS011;9607;51.600;7.558;2023-09-19T09:05:23;12.95;;;3.15;;
18947;SDS011;9607;51.600;7.558;2023-09-19T09:07:51;11.77;;;2.60;;
18947;SDS011;9607;51.600;7.558;2023-09-19T09:10:22;10.18;;;2.80;;
18947;SDS011;9607;51.600;7.558;2023-09-19T09:12:50;8.02;;;2.20;;
18947;SDS011;9607;51.600;7.558;2023-09-19T09:15:18;7.20;;;2.60;;
18947;SDS011;9607;51.600;7.558;2023-09-19T09:17:48;10.82;;;2.78;;
18947;SDS011;9607;51.600;7.558;2023-09-19T09:20:16;8.30;;;2.42;;
18947;SDS011;9607;51.600;7.558;2023-09-19T09:22:53;10.63;;;2.40;;
18947;SDS011;9607;51.600;7.558;2023-09-19T09:25:20;10.57;;;2.45;;
18947;SDS011;9607;51.600;7.558;2023-09-19T09:27:58;6.47;;;2.30;;
18947;SDS011;9607;51.600;7.558;2023-09-19T09:30:35;11.30;;;2.35;;
18947;SDS011;9607;51.600;7.558;2023-09-19T09:33:09;9.73;;;2.95;;
18947;SDS011;9607;51.600;7.558;2023-09-19T09:35:37;10.93;;;2.45;;
18947;SDS011;9607;51.600;7.558;2023-09-19T09:38:17;13.85;;;2.80;;
18947;SDS011;9607;51.600;7.558;2023-09-19T09:40:49;10.10;;;2.85;;
18947;SDS011;9607;51.600;7.558;2023-09-19T09:43:28;7.70;;;2.42;;
18947;SDS011;9607;51.600;7.558;2023-09-19T09:46:06;8.50;;;2.40;;
18947;SDS011;9607;51.600;7.558;2023-09-19T09:48:58;9.68;;;3.03;;
18947;SDS011;9607;51.600;7.558;2023-09-19T09:51:45;9.70;;;2.28;;
18947;SDS011;9607;51.600;7.558;2023-09-19T09:54:22;10.80;;;2.95;;
18947;SDS011;9607;51.600;7.558;2023-09-19T09:56:55;9.05;;;2.33;;
18947;SDS011;9607;51.600;7.558;2023-09-19T10:02:12;8.10;;;2.40;;
18947;SDS011;9607;51.600;7.558;2023-09-19T10:04:40;5.95;;;2.38;;
18947;SDS011;9607;51.600;7.558;2023-09-19T10:07:24;8.75;;;2.72;;
18947;SDS011;9607;51.600;7.558;2023-09-19T10:09:57;7.55;;;2.22;;
18947;SDS011;9607;51.600;7.558;2023-09-19T10:12:40;9.98;;;2.67;;
18947;SDS011;9607;51.600;7.558;2023-09-19T10:15:10;5.85;;;2.05;;
18947;SDS011;9607;51.600;7.558;2023-09-19T10:17:42;12.25;;;2.40;;
18947;SDS011;9607;51.600;7.558;2023-09-19T10:20:12;6.45;;;2.50;;
18947;SDS011;9607;51.600;7.558;2023-09-19T10:22:59;8.90;;;2.55;;
18947;SDS011;9607;51.600;7.558;2023-09-19T10:25:26;4.63;;;1.90;;
18947;SDS011;9607;51.600;7.558;2023-09-19T10:27:57;9.18;;;2.42;;
18947;SDS011;9607;51.600;7.558;2023-09-19T10:30:28;7.40;;;2.35;;
18947;SDS011;9607;51.600;7.558;2023-09-19T10:33:02;10.07;;;2.42;;
18947;SDS011;9607;51.600;7.558;2023-09-19T10:35:30;9.82;;;2.65;;
18947;SDS011;9607;51.600;7.558;2023-09-19T10:38:00;9.85;;;2.30;;
18947;SDS011;9607;51.600;7.558;2023-09-19T10:40:28;9.80;;;2.85;;
18947;SDS011;9607;51.600;7.558;2023-09-19T10:43:02;7.25;;;2.53;;
18947;SDS011;9607;51.600;7.558;2023-09-19T10:45:31;7.70;;;2.17;;
18947;SDS011;9607;51.600;7.558;2023-09-19T10:47:58;8.32;;;2.20;;
18947;SDS011;9607;51.600;7.558;2023-09-19T10:50:27;6.68;;;2.13;;
18947;SDS011;9607;51.600;7.558;2023-09-19T10:53:00;7.63;;;2.50;;
18947;SDS011;9607;51.600;7.558;2023-09-19T10:55:31;10.63;;;2.40;;
18947;SDS011;9607;51.600;7.558;2023-09-19T10:58:01;5.38;;;2.17;;
18947;SDS011;9607;51.600;7.558;2023-09-19T11:00:50;6.25;;;2.38;;
18947;SDS011;9607;51.600;7.558;2023-09-19T11:03:19;8.68;;;2.10;;
18947;SDS011;9607;51.600;7.558;2023-09-19T11:06:08;8.63;;;2.70;;
18947;SDS011;9607;51.600;7.558;2023-09-19T11:08:51;5.28;;;2.35;;
18947;SDS011;9607;51.600;7.558;2023-09-19T11:14:32;4.05;;;2.10;;
18947;SDS011;9607;51.600;7.558;2023-09-19T11:20:19;8.95;;;2.55;;
18947;SDS011;9607;51.600;7.558;2023-09-19T11:25:51;8.05;;;2.50;;
18947;SDS011;9607;51.600;7.558;2023-09-19T11:40:25;8.13;;;2.10;;
18947;SDS011;9607;51.600;7.558;2023-09-19T11:42:53;10.30;;;2.25;;
18947;SDS011;9607;51.600;7.558;2023-09-19T11:48:26;8.57;;;2.63;;
18947;SDS011;9607;51.600;7.558;2023-09-19T11:50:56;8.20;;;2.45;;
18947;SDS011;9607;51.600;7.558;2023-09-19T11:53:24;7.57;;;1.92;;
18947;SDS011;9607;51.600;7.558;2023-09-19T11:56:01;6.53;;;2.30;;
18947;SDS011;9607;51.600;7.558;2023-09-19T11:58:28;4.20;;;1.67;;
18947;SDS011;9607;51.600;7.558;2023-09-19T12:00:58;5.90;;;2.13;;
18947;SDS011;9607;51.600;7.558;2023-09-19T12:03:29;8.73;;;2.53;;
18947;SDS011;9607;51.600;7.558;2023-09-19T12:05:59;6.20;;;1.85;;
18947;SDS011;9607;51.600;7.558;2023-09-19T12:08:28;5.03;;;1.92;;
18947;SDS011;9607;51.600;7.558;2023-09-19T12:10:55;7.70;;;2.10;;
18947;SDS011;9607;51.600;7.558;2023-09-19T12:13:22;4.40;;;1.92;;
18947;SDS011;9607;51.600;7.558;2023-09-19T12:15:50;8.27;;;2.13;;
18947;SDS011;9607;51.600;7.558;2023-09-19T12:18:27;7.65;;;2.45;;
18947;SDS011;9607;51.600;7.558;2023-09-19T12:20:55;5.00;;;1.90;;
18947;SDS011;9607;51.600;7.558;2023-09-19T12:23:24;6.82;;;2.13;;
18947;SDS011;9607;51.600;7.558;2023-09-19T12:25:51;6.30;;;2.20;;
18947;SDS011;9607;51.600;7.558;2023-09-19T12:28:21;7.47;;;2.50;;
18947;SDS011;9607;51.600;7.558;2023-09-19T12:30:51;7.18;;;1.90;;
18947;SDS011;9607;51.600;7.558;2023-09-19T12:33:20;5.13;;;1.90;;
18947;SDS011;9607;51.600;7.558;2023-09-19T12:35:51;5.05;;;1.83;;
18947;SDS011;9607;51.600;7.558;2023-09-19T12:38:26;3.97;;;1.63;;
18947;SDS011;9607;51.600;7.558;2023-09-19T12:40:54;6.05;;;1.80;;
18947;SDS011;9607;51.600;7.558;2023-09-19T12:43:25;4.18;;;2.00;;
18947;SDS011;9607;51.600;7.558;2023-09-19T12:45:52;8.25;;;2.00;;
18947;SDS011;9607;51.600;7.558;2023-09-19T12:48:22;3.92;;;2.00;;
18947;SDS011;9607;51.600;7.558;2023-09-19T12:51:00;4.43;;;1.85;;
18947;SDS011;9607;51.600;7.558;2023-09-19T12:53:32;5.88;;;1.88;;
18947;SDS011;9607;51.600;7.558;2023-09-19T12:56:03;5.60;;;1.85;;
18947;SDS011;9607;51.600;7.558;2023-09-19T12:58:32;6.50;;;1.92;;
18947;SDS011;9607;51.600;7.558;2023-09-19T13:01:00;5.70;;;1.92;;
18947;SDS011;9607;51.600;7.558;2023-09-19T13:03:27;6.28;;;2.17;;
18947;SDS011;9607;51.600;7.558;2023-09-19T13:05:58;6.93;;;1.83;;
18947;SDS011;9607;51.600;7.558;2023-09-19T13:08:28;8.25;;;1.90;;
18947;SDS011;9607;51.600;7.558;2023-09-19T13:11:04;9.25;;;2.08;;
18947;SDS011;9607;51.600;7.558;2023-09-19T13:13:35;4.88;;;1.75;;
18947;SDS011;9607;51.600;7.558;2023-09-19T13:16:02;6.28;;;1.85;;
18947;SDS011;9607;51.600;7.558;2023-09-19T13:18:33;4.35;;;1.83;;
18947;SDS011;9607;51.600;7.558;2023-09-19T13:21:10;7.35;;;2.08;;
18947;SDS011;9607;51.600;7.558;2023-09-19T13:23:40;5.15;;;1.80;;
18947;SDS011;9607;51.600;7.558;2023-09-19T13:26:09;5.90;;;1.65;;
18947;SDS011;9607;51.600;7.558;2023-09-19T13:28:37;5.25;;;1.70;;
18947;SDS011;9607;51.600;7.558;2023-09-19T13:31:05;4.47;;;1.65;;
18947;SDS011;9607;51.600;7.558;2023-09-19T13:33:33;6.13;;;1.60;;
18947;SDS011;9607;51.600;7.558;2023-09-19T13:36:00;5.80;;;1.90;;
18947;SDS011;9607;51.600;7.558;2023-09-19T13:38:28;3.95;;;1.60;;
18947;SDS011;9607;51.600;7.558;2023-09-19T13:40:54;2.13;;;1.45;;
18947;SDS011;9607;51.600;7.558;2023-09-19T13:43:23;2.45;;;1.35;;
18947;SDS011;9607;51.600;7.558;2023-09-19T13:45:50;4.65;;;1.65;;
18947;SDS011;9607;51.600;7.558;2023-09-19T13:48:17;7.55;;;2.00;;
18947;SDS011;9607;51.600;7.558;2023-09-19T13:50:47;3.53;;;1.48;;
18947;SDS011;9607;51.600;7.558;2023-09-19T13:53:14;5.97;;;1.40;;
18947;SDS011;9607;51.600;7.558;2023-09-19T13:55:41;8.48;;;1.73;;
18947;SDS011;9607;51.600;7.558;2023-09-19T13:58:08;5.47;;;1.65;;
18947;SDS011;9607;51.600;7.558;2023-09-19T14:00:38;4.10;;;1.30;;
18947;SDS011;9607;51.600;7.558;2023-09-19T14:03:05;4.93;;;1.30;;
18947;SDS011;9607;51.600;7.558;2023-09-19T14:05:32;4.53;;;1.27;;
18947;SDS011;9607;51.600;7.558;2023-09-19T14:07:59;4.95;;;1.58;;
18947;SDS011;9607;51.600;7.558;2023-09-19T14:10:28;4.68;;;1.48;;
18947;SDS011;9607;51.600;7.558;2023-09-19T14:12:56;5.18;;;1.45;;
18947;SDS011;9607;51.600;7.558;2023-09-19T14:15:24;4.93;;;1.50;;
18947;SDS011;9607;51.600;7.558;2023-09-19T14:17:56;4.22;;;1.27;;
18947;SDS011;9607;51.600;7.558;2023-09-19T14:20:24;2.83;;;1.25;;
18947;SDS011;9607;51.600;7.558;2023-09-19T14:22:52;3.08;;;1.00;;
18947;SDS011;9607;51.600;7.558;2023-09-19T14:25:20;5.93;;;1.40;;
18947;SDS011;9607;51.600;7.558;2023-09-19T14:27:47;3.85;;;1.08;;
18947;SDS011;9607;51.600;7.558;2023-09-19T14:30:14;5.93;;;1.23;;
18947;SDS011;9607;51.600;7.558;2023-09-19T14:32:41;2.55;;;1.25;;
18947;SDS011;9607;51.600;7.558;2023-09-19T14:35:09;2.60;;;0.80;;
18947;SDS011;9607;51.600;7.558;2023-09-19T14:37:43;1.92;;;1.00;;
18947;SDS011;9607;51.600;7.558;2023-09-19T14:40:18;3.13;;;1.40;;
18947;SDS011;9607;51.600;7.558;2023-09-19T14:42:48;3.63;;;1.40;;
18947;SDS011;9607;51.600;7.558;2023-09-19T14:45:15;4.45;;;1.23;;
18947;SDS011;9607;51.600;7.558;2023-09-19T14:47:43;4.25;;;1.13;;
18947;SDS011;9607;51.600;7.558;2023-09-19T14:50:13;3.05;;;1.30;;
18947;SDS011;9607;51.600;7.558;2023-09-19T14:52:40;4.40;;;1.23;;
18947;SDS011;9607;51.600;7.558;2023-09-19T14:55:07;9.07;;;1.25;;
18947;SDS011;9607;51.600;7.558;2023-09-19T14:57:40;4.88;;;1.30;;
18947;SDS011;9607;51.600;7.558;2023-09-19T15:00:10;1.95;;;1.02;;
18947;SDS011;9607;51.600;7.558;2023-09-19T15:02:38;5.07;;;1.40;;
18947;SDS011;9607;51.600;7.558;2023-09-19T15:05:06;2.17;;;0.95;;
18947;SDS011;9607;51.600;7.558;2023-09-19T15:07:35;8.00;;;1.30;;
18947;SDS011;9607;51.600;7.558;2023-09-19T15:10:03;5.65;;;1.17;;
18947;SDS011;9607;51.600;7.558;2023-09-19T15:12:32;4.82;;;1.45;;
18947;SDS011;9607;51.600;7.558;2023-09-19T15:15:00;2.45;;;0.90;;
18947;SDS011;9607;51.600;7.558;2023-09-19T15:17:30;1.88;;;0.88;;
18947;SDS011;9607;51.600;7.558;2023-09-19T15:19:56;1.88;;;0.98;;
18947;SDS011;9607;51.600;7.558;2023-09-19T15:22:23;3.05;;;0.82;;
18947;SDS011;9607;51.600;7.558;2023-09-19T15:24:53;2.22;;;0.88;;
18947;SDS011;9607;51.600;7.558;2023-09-19T15:27:20;4.53;;;1.20;;
18947;SDS011;9607;51.600;7.558;2023-09-19T15:29:47;3.30;;;0.98;;
18947;SDS011;9607;51.600;7.558;2023-09-19T15:32:14;4.50;;;1.10;;
18947;SDS011;9607;51.600;7.558;2023-09-19T15:34:40;3.40;;;1.00;;
18947;SDS011;9607;51.600;7.558;2023-09-19T15:37:07;3.58;;;0.95;;
18947;SDS011;9607;51.600;7.558;2023-09-19T15:39:34;2.17;;;0.90;;
18947;SDS011;9607;51.600;7.558;2023-09-19T15:42:03;4.85;;;1.00;;